Time;durP1;ratioP1;P1;durP2;ratioP2;P2;SDS_P1;SDS_P2;PMS_P1;PMS_P2;Temp;Humidity;BMP_temperature;BMP_pressure;BME280_temperature;BME280_humidity;BME280_pressure;Samples;Min_cycle;Max_cycle;Signal;HPM_P1;HPM_P2
2021/11/27 00:01:28;;;;;;;3.90;3.60;;;;;;;20.15;48.25;94925.13;5011997;28;20463;-78
2021/11/27 00:03:55;;;;;;;4.33;4.03;;;;;;;20.47;48.38;94973.38;5012089;28;20189;-78
2021/11/27 00:06:23;;;;;;;4.47;4.07;;;;;;;21.02;48.24;95067.41;5027905;28;20282;-78
2021/11/27 00:08:49;;;;;;;4.10;3.80;;;;;;;21.02;48.09;95069.97;5026372;28;20209;-79
2021/11/27 00:11:16;;;;;;;4.37;3.97;;;;;;;19.98;48.20;94888.66;5045243;28;20236;-79
2021/11/27 00:13:43;;;;;;;4.03;3.67;;;;;;;20.25;48.32;94931.84;5027553;28;20296;-79
2021/11/27 00:16:09;;;;;;;3.80;3.50;;;;;;;19.85;48.41;94864.97;4997534;28;20896;-78
2021/11/27 00:18:36;;;;;;;4.10;3.80;;;;;;;20.09;48.21;94894.53;5008912;28;20205;-78
2021/11/27 00:21:05;;;;;;;3.83;3.53;;;;;;;21.01;48.28;95052.13;5012700;28;20205;-76
2021/11/27 00:23:34;;;;;;;3.60;3.30;;;;;;;20.11;48.59;94914.94;5026910;28;20275;-78
2021/11/27 00:26:01;;;;;;;3.70;3.40;;;;;;;20.98;48.52;95047.03;5028223;28;20536;-76
2021/11/27 00:28:28;;;;;;;3.63;3.33;;;;;;;19.49;48.01;94897.44;5045866;28;20208;-79
2021/11/27 00:30:57;;;;;;;4.17;3.77;;;;;;;20.95;48.25;95047.06;4995330;28;20201;-79
2021/11/27 00:33:24;;;;;;;3.50;3.20;;;;;;;20.94;48.66;95047.88;5045159;28;20209;-78
2021/11/27 00:35:51;;;;;;;3.93;3.63;;;;;;;20.94;48.35;95040.22;5046052;28;20220;-79
2021/11/27 00:38:18;;;;;;;3.73;3.43;;;;;;;18.38;47.98;94611.22;5011570;28;20335;-79
2021/11/27 00:40:44;;;;;;;3.30;3.00;;;;;;;20.60;48.56;94975.81;5010030;28;20285;-79
2021/11/27 00:43:11;;;;;;;3.63;3.33;;;;;;;20.10;48.59;94916.63;4995338;28;20311;-79
2021/11/27 00:45:39;;;;;;;3.60;3.30;;;;;;;20.54;48.41;94972.50;5011677;28;20255;-78
2021/11/27 00:48:06;;;;;;;4.20;3.80;;;;;;;20.37;48.39;94938.59;4997182;28;20234;-78
2021/11/27 00:50:39;;;;;;;3.50;3.20;;;;;;;20.67;48.59;94989.38;4997580;28;20498;-78
2021/11/27 00:53:06;;;;;;;3.43;3.13;;;;;;;19.60;48.57;94811.63;5049573;28;20193;-79
2021/11/27 00:55:33;;;;;;;4.07;3.70;;;;;;;20.93;48.43;95029.16;5031301;28;20271;-78
2021/11/27 00:57:59;;;;;;;3.60;3.30;;;;;;;20.94;48.38;95033.44;5045737;28;20266;-79
2021/11/27 01:00:31;;;;;;;3.50;3.20;;;;;;;20.43;48.44;94946.19;5012961;28;20248;-78
2021/11/27 01:02:59;;;;;;;3.67;3.37;;;;;;;20.67;48.27;94995.34;5015575;28;20216;-79
2021/11/27 01:05:27;;;;;;;3.60;3.30;;;;;;;17.92;48.28;94530.94;4998299;28;20283;-79
2021/11/27 01:07:54;;;;;;;3.80;3.50;;;;;;;20.67;48.52;94990.25;5017118;28;20212;-79
2021/11/27 01:10:28;;;;;;;3.67;3.37;;;;;;;20.94;48.46;95030.03;4999163;28;20202;-79
2021/11/27 01:12:55;;;;;;;4.07;3.67;;;;;;;20.92;48.48;95032.59;5031584;28;20201;-79
2021/11/27 01:15:23;;;;;;;3.50;3.20;;;;;;;20.58;48.32;94963.94;5029769;28;20224;-79
2021/11/27 01:17:50;;;;;;;3.47;3.17;;;;;;;20.47;48.38;94950.41;5030681;28;20302;-79
2021/11/27 01:20:18;;;;;;;3.53;3.23;;;;;;;20.90;48.52;95020.69;5011880;28;20271;-78
2021/11/27 01:22:45;;;;;;;3.70;3.40;;;;;;;20.88;48.11;95019.84;5041981;28;20220;-79
2021/11/27 01:25:14;;;;;;;3.70;3.40;;;;;;;20.87;48.44;95021.56;5030622;28;20235;-78
2021/11/27 01:27:41;;;;;;;3.53;3.23;;;;;;;20.57;48.69;94970.75;5029195;28;20241;-79
2021/11/27 01:30:09;;;;;;;3.53;3.23;;;;;;;20.87;48.41;95015.63;5014113;28;20674;-78
2021/11/27 01:32:36;;;;;;;3.50;3.20;;;;;;;20.87;48.64;95016.44;5047036;28;20248;-79
2021/11/27 01:35:03;;;;;;;3.10;2.90;;;;;;;20.86;48.49;95014.75;5008960;28;20256;-77
2021/11/27 01:37:29;;;;;;;3.07;2.87;;;;;;;20.88;48.39;95007.09;5044930;28;20205;-79
2021/11/27 01:39:56;;;;;;;3.30;3.00;;;;;;;19.09;48.80;94697.31;5048117;28;20677;-79
2021/11/27 01:42:23;;;;;;;3.00;2.80;;;;;;;20.88;48.79;95010.50;5026098;28;20229;-79
2021/11/27 01:44:49;;;;;;;3.30;3.00;;;;;;;20.88;48.36;95013.06;5046182;28;20290;-79
2021/11/27 01:47:20;;;;;;;3.40;3.10;;;;;;;20.88;48.53;95004.53;5026369;28;20549;-78
2021/11/27 01:49:47;;;;;;;2.90;2.70;;;;;;;19.79;48.35;94824.25;5048076;28;20207;-78
2021/11/27 01:52:13;;;;;;;3.30;3.00;;;;;;;20.89;48.73;95001.97;5017820;28;20206;-79
2021/11/27 01:54:40;;;;;;;3.80;3.47;;;;;;;20.89;48.48;95004.53;5027073;28;20224;-79
2021/11/27 01:57:07;;;;;;;3.27;3.07;;;;;;;20.85;48.35;94984.16;5029980;28;20209;-79
2021/11/27 01:59:34;;;;;;;3.43;3.13;;;;;;;19.28;48.48;94715.06;5022274;28;20205;-79
2021/11/27 02:02:01;;;;;;;3.37;3.07;;;;;;;20.15;48.37;94858.84;4999483;28;20208;-79
2021/11/27 02:04:28;;;;;;;3.17;2.93;;;;;;;20.90;48.46;94979.84;5010077;28;20255;-78
2021/11/27 02:06:55;;;;;;;2.80;2.60;;;;;;;20.64;48.82;94952.00;5028774;28;20530;-79
2021/11/27 02:09:24;;;;;;;2.90;2.70;;;;;;;20.58;48.62;94933.34;5044189;28;20594;-79
2021/11/27 02:11:51;;;;;;;3.47;3.17;;;;;;;20.58;48.63;94921.44;5029880;28;20205;-76
2021/11/27 02:14:17;;;;;;;3.10;2.90;;;;;;;19.71;48.41;94815.78;5011264;28;20616;-78
2021/11/27 02:16:45;;;;;;;2.90;2.67;;;;;;;20.85;48.26;94984.16;5012760;28;20200;-80
2021/11/27 02:19:12;;;;;;;3.30;3.00;;;;;;;19.70;48.37;94780.13;5029400;28;20263;-79
2021/11/27 02:21:44;;;;;;;3.20;2.90;;;;;;;20.36;48.93;94894.38;5005839;28;20213;-79
2021/11/27 02:24:12;;;;;;;3.70;3.20;;;;;;;20.54;48.81;94918.91;5029897;28;20786;-78
2021/11/27 02:26:38;;;;;;;3.10;2.90;;;;;;;20.52;48.62;94910.41;5029106;28;20311;-78
2021/11/27 02:29:08;;;;;;;2.90;2.70;;;;;;;20.58;48.78;94912.91;5012106;28;20205;-76
2021/11/27 02:31:34;;;;;;;3.20;2.90;;;;;;;18.95;48.61;94632.94;5046916;28;20211;-79
2021/11/27 02:34:01;;;;;;;2.83;2.63;;;;;;;20.84;48.67;94951.84;5029681;28;20197;-78
2021/11/27 02:36:28;;;;;;;3.00;2.70;;;;;;;20.84;48.56;94950.09;5029104;28;20252;-79
2021/11/27 02:38:56;;;;;;;2.83;2.63;;;;;;;20.84;48.87;94947.56;5047104;28;20211;-78
2021/11/27 02:41:22;;;;;;;2.90;2.70;;;;;;;20.85;48.76;94946.72;5046921;28;20216;-78
2021/11/27 02:43:49;;;;;;;3.17;2.87;;;;;;;19.60;48.69;94730.13;5027975;28;20220;-79
2021/11/27 02:46:15;;;;;;;2.87;2.67;;;;;;;19.66;48.77;94769.09;5029478;28;20225;-79
2021/11/27 02:48:42;;;;;;;2.70;2.50;;;;;;;20.86;48.64;94943.28;5045329;28;20258;-79
2021/11/27 02:51:09;;;;;;;3.10;2.80;;;;;;;20.86;48.62;94933.09;4990376;28;20211;-78
2021/11/27 02:53:36;;;;;;;2.93;2.73;;;;;;;19.51;48.60;94717.47;5040997;28;20223;-79
2021/11/27 02:56:03;;;;;;;2.60;2.40;;;;;;;20.86;48.47;94930.53;5027647;28;20247;-80
2021/11/27 02:58:29;;;;;;;2.67;2.47;;;;;;;20.60;48.69;94876.31;5012127;28;20228;-78
2021/11/27 03:00:57;;;;;;;3.13;2.93;;;;;;;20.88;48.58;94921.16;5013190;28;20208;-79
2021/11/27 03:03:25;;;;;;;2.90;2.70;;;;;;;18.72;48.66;94549.16;5045461;28;20229;-78
2021/11/27 03:08:21;;;;;;;2.73;2.53;;;;;;;20.26;48.48;94816.28;5066178;22;20236;-79
2021/11/27 03:10:48;;;;;;;2.90;2.70;;;;;;;20.06;48.57;94774.75;5015147;28;20262;-81
2021/11/27 03:13:14;;;;;;;2.97;2.73;;;;;;;20.35;48.39;94834.03;5012103;28;20629;-77
2021/11/27 03:15:41;;;;;;;2.87;2.67;;;;;;;20.74;48.27;94897.47;5032078;28;20208;-80
2021/11/27 03:18:11;;;;;;;2.87;2.67;;;;;;;19.99;48.53;94775.69;5025899;28;20230;-81
2021/11/27 03:20:38;;;;;;;2.70;2.50;;;;;;;20.19;48.50;94809.50;4997266;28;20206;-81
2021/11/27 03:23:05;;;;;;;2.80;2.60;;;;;;;19.90;48.71;94758.72;4979283;28;20316;-80
2021/11/27 03:25:32;;;;;;;2.70;2.50;;;;;;;20.28;48.70;94818.81;4995496;28;20280;-82
2021/11/27 03:27:58;;;;;;;2.60;2.40;;;;;;;20.05;49.17;94783.28;4981921;28;20249;-82
2021/11/27 03:30:25;;;;;;;2.60;2.40;;;;;;;20.62;48.67;94878.84;4995173;28;20236;-82
2021/11/27 03:32:51;;;;;;;2.90;2.60;;;;;;;20.57;48.66;94875.53;4993828;28;20205;-80
2021/11/27 03:35:18;;;;;;;3.20;2.90;;;;;;;20.01;48.80;94776.50;4990042;28;20209;-81
2021/11/27 03:37:45;;;;;;;2.70;2.50;;;;;;;20.45;48.56;94850.94;5019135;28;20221;-82
2021/11/27 03:40:12;;;;;;;3.17;2.87;;;;;;;20.82;48.65;94916.13;5011480;28;20212;-81
2021/11/27 03:42:39;;;;;;;2.53;2.33;;;;;;;18.99;48.62;94632.91;5025935;28;20205;-81
2021/11/27 03:45:07;;;;;;;2.40;2.20;;;;;;;20.20;48.50;94793.38;5010829;28;20202;-84
2021/11/27 03:47:33;;;;;;;2.50;2.30;;;;;;;20.85;48.54;94913.53;4999806;28;20283;-80
2021/11/27 03:50:00;;;;;;;2.70;2.50;;;;;;;19.98;48.52;94758.66;5010306;28;20210;-82
2021/11/27 03:52:26;;;;;;;2.23;2.13;;;;;;;20.80;48.70;94910.16;4993553;28;20638;-81
2021/11/27 03:54:53;;;;;;;2.77;2.57;;;;;;;20.05;48.62;94773.06;5009301;28;20255;-81
2021/11/27 03:57:20;;;;;;;2.60;2.40;;;;;;;19.39;48.98;94664.06;4994948;28;20744;-81
2021/11/27 03:59:46;;;;;;;2.67;2.47;;;;;;;20.01;48.76;94752.72;5011690;28;20206;-80
2021/11/27 04:02:13;;;;;;;2.63;2.43;;;;;;;20.54;48.61;94850.84;4992102;28;20210;-81
2021/11/27 04:04:42;;;;;;;2.60;2.40;;;;;;;20.50;48.43;94839.00;5028758;28;20299;-81
2021/11/27 04:07:09;;;;;;;2.53;2.33;;;;;;;20.82;48.69;94893.16;5007972;28;20578;-81
2021/11/27 04:09:36;;;;;;;2.70;2.50;;;;;;;20.23;48.56;94800.13;5010906;28;20674;-81
2021/11/27 04:12:03;;;;;;;3.00;2.80;;;;;;;20.45;48.56;94827.13;5010206;28;20686;-80
2021/11/27 04:14:30;;;;;;;2.20;2.10;;;;;;;20.57;48.48;94855.94;4992445;28;20202;-81
2021/11/27 04:16:57;;;;;;;2.60;2.40;;;;;;;20.85;48.65;94899.91;5023744;28;20222;-81
2021/11/27 04:19:23;;;;;;;2.60;2.40;;;;;;;20.07;48.36;94762.88;5010361;28;20231;-82
2021/11/27 04:21:50;;;;;;;2.60;2.40;;;;;;;20.25;48.60;94790.78;5028678;28;20692;-80
2021/11/27 04:24:17;;;;;;;2.60;2.40;;;;;;;20.87;48.71;94898.19;4997281;28;20739;-80
2021/11/27 04:26:43;;;;;;;2.30;2.20;;;;;;;20.22;48.69;94789.09;5014433;28;20300;-81
2021/11/27 04:29:10;;;;;;;2.70;2.50;;;;;;;20.34;48.42;94806.00;4999320;28;20662;-83
2021/11/27 04:31:37;;;;;;;2.43;2.23;;;;;;;20.32;48.50;94808.56;4998838;28;20261;-79
2021/11/27 04:34:05;;;;;;;2.77;2.57;;;;;;;20.86;48.45;94892.25;4998030;28;20198;-82
2021/11/27 04:36:32;;;;;;;2.60;2.40;;;;;;;20.34;48.33;94804.28;5032375;28;20225;-80
2021/11/27 04:38:59;;;;;;;2.20;2.10;;;;;;;20.89;48.50;94910.09;4998893;28;20234;-83
2021/11/27 04:41:26;;;;;;;2.50;2.30;;;;;;;20.80;48.47;94886.34;5014804;28;20622;-79
2021/11/27 04:43:53;;;;;;;2.10;2.00;;;;;;;20.19;48.59;94786.56;5031908;28;20284;-80
2021/11/27 04:46:19;;;;;;;2.53;2.33;;;;;;;20.47;48.40;94833.94;5030366;28;20228;-81
2021/11/27 04:48:46;;;;;;;2.53;2.33;;;;;;;20.44;48.52;94822.91;5014774;28;20208;-81
2021/11/27 04:51:12;;;;;;;2.20;2.10;;;;;;;20.19;48.25;94784.00;4998890;28;20209;-80
2021/11/27 04:53:39;;;;;;;2.67;2.47;;;;;;;20.30;48.33;94809.41;4995700;28;20236;-81
2021/11/27 04:56:06;;;;;;;2.40;2.20;;;;;;;20.69;48.22;94883.06;4998291;28;20240;-81
2021/11/27 04:58:32;;;;;;;2.30;2.10;;;;;;;20.12;48.40;94781.50;4998296;28;20229;-80
2021/11/27 05:00:59;;;;;;;2.10;2.00;;;;;;;20.33;48.43;94822.13;5014694;28;20201;-81
2021/11/27 05:03:27;;;;;;;2.43;2.23;;;;;;;20.81;48.80;94903.38;4998849;28;20236;-79
2021/11/27 05:05:54;;;;;;;2.33;2.13;;;;;;;20.81;48.51;94908.47;5006956;28;20202;-81
2021/11/27 05:08:21;;;;;;;2.57;2.37;;;;;;;20.68;48.81;94877.09;5007966;28;20241;-82
2021/11/27 05:10:47;;;;;;;2.17;2.03;;;;;;;19.04;48.49;94609.97;5000122;28;20755;-81
2021/11/27 05:13:14;;;;;;;2.50;2.30;;;;;;;20.13;48.72;94791.72;5012597;28;20209;-84
2021/11/27 05:15:40;;;;;;;2.43;2.07;;;;;;;20.05;48.62;94772.22;4993948;28;20336;-81
2021/11/27 05:18:07;;;;;;;2.10;2.00;;;;;;;19.33;48.76;94648.84;5025385;28;20230;-83
2021/11/27 05:20:33;;;;;;;2.47;2.27;;;;;;;20.78;48.94;94894.00;4998374;28;20615;-81
2021/11/27 05:23:00;;;;;;;2.13;2.03;;;;;;;20.37;48.89;94818.72;5031445;28;20209;-78
2021/11/27 05:25:27;;;;;;;2.37;2.20;;;;;;;20.82;48.84;94892.28;5013999;28;20201;-80
2021/11/27 05:27:53;;;;;;;2.03;1.93;;;;;;;19.98;48.47;94754.44;5030058;28;20222;-83
2021/11/27 05:30:21;;;;;;;2.03;1.93;;;;;;;19.79;48.74;94727.41;5014171;28;20206;-82
2021/11/27 05:33:07;;;;;;;2.60;2.40;;;;;;;20.19;48.99;94784.00;5011459;28;20240;-81
2021/11/27 05:35:34;;;;;;;2.00;1.90;;;;;;;20.66;48.82;94860.13;5001387;28;20205;-80
2021/11/27 05:38:01;;;;;;;2.10;2.00;;;;;;;20.64;48.78;94855.03;5016017;28;20718;-82
2021/11/27 05:40:28;;;;;;;2.40;2.20;;;;;;;19.99;48.78;94750.19;5012245;28;20205;-80
2021/11/27 05:42:54;;;;;;;2.00;1.90;;;;;;;20.08;48.87;94767.94;5020299;28;20210;-83
2021/11/27 05:45:27;;;;;;;2.03;1.93;;;;;;;20.43;48.76;94834.78;5006960;28;20660;-81
2021/11/27 05:48:01;;;;;;;1.90;1.80;;;;;;;20.71;48.72;94878.78;4976225;28;20226;-81
2021/11/27 05:50:28;;;;;;;2.00;1.90;;;;;;;20.32;48.97;94821.31;5013518;28;20200;-80
2021/11/27 05:52:55;;;;;;;2.40;2.20;;;;;;;19.94;48.65;94752.78;5007613;28;20212;-83
2021/11/27 05:55:22;;;;;;;2.27;2.07;;;;;;;19.79;48.76;94729.13;5004308;28;20228;-84
2021/11/27 05:57:48;;;;;;;2.33;2.13;;;;;;;20.53;48.60;94851.72;4994835;28;20853;-81
2021/11/27 06:00:15;;;;;;;2.10;2.00;;;;;;;18.89;48.61;94577.03;5022772;28;20201;-81
2021/11/27 06:02:42;;;;;;;2.10;2.00;;;;;;;20.20;48.70;94795.91;5034782;28;20205;-83
2021/11/27 06:05:09;;;;;;;2.20;2.07;;;;;;;20.19;48.83;94788.28;5018074;28;20256;-81
2021/11/27 06:07:35;;;;;;;2.20;2.10;;;;;;;20.10;48.50;94788.34;5014050;28;20229;-83
2021/11/27 06:10:04;;;;;;;2.33;2.13;;;;;;;19.87;48.56;94743.47;4986919;28;20210;-83
2021/11/27 06:12:30;;;;;;;2.13;2.00;;;;;;;20.43;48.82;94836.53;5001758;28;20209;-83
2021/11/27 06:14:57;;;;;;;2.07;1.90;;;;;;;19.88;48.73;94744.31;5016098;28;20241;-82
2021/11/27 06:17:23;;;;;;;1.90;1.80;;;;;;;19.84;48.89;94743.50;5000981;28;20232;-82
2021/11/27 06:19:51;;;;;;;1.97;1.87;;;;;;;19.79;48.79;94737.59;5003371;28;20240;-82
2021/11/27 06:22:20;;;;;;;2.27;2.07;;;;;;;19.99;48.66;94776.50;5004292;28;20205;-82
2021/11/27 06:24:47;;;;;;;2.13;2.03;;;;;;;19.45;48.33;94682.66;4983240;28;20241;-82
2021/11/27 06:27:14;;;;;;;2.00;1.90;;;;;;;19.50;48.49;94703.00;5000577;28;20225;-80
2021/11/27 06:29:40;;;;;;;1.77;1.67;;;;;;;19.40;48.65;94681.03;5013319;28;20241;-82
2021/11/27 06:32:09;;;;;;;2.07;1.97;;;;;;;18.10;48.48;94464.78;5016756;28;20202;-82
2021/11/27 06:34:36;;;;;;;2.03;1.93;;;;;;;19.84;48.64;94761.31;5000097;28;20201;-83
2021/11/27 06:37:02;;;;;;;2.00;1.90;;;;;;;20.10;48.72;94812.09;5011465;28;20222;-81
2021/11/27 06:39:29;;;;;;;2.00;1.90;;;;;;;20.37;48.40;94846.78;4999754;28;20244;-81
2021/11/27 06:41:57;;;;;;;1.83;1.73;;;;;;;18.88;48.96;94621.09;4983172;28;20208;-81
2021/11/27 06:44:24;;;;;;;2.30;2.10;;;;;;;20.03;48.69;94818.13;5033324;28;20213;-81
2021/11/27 06:46:50;;;;;;;2.30;2.10;;;;;;;20.13;48.75;94822.31;5009292;28;20631;-85
2021/11/27 06:49:17;;;;;;;2.00;1.90;;;;;;;20.78;48.80;94924.63;5016650;28;20268;-82
2021/11/27 06:51:44;;;;;;;2.10;2.00;;;;;;;19.94;48.79;94802.88;5033749;28;20678;-81
2021/11/27 06:54:10;;;;;;;1.90;1.80;;;;;;;20.24;48.78;94832.41;4997380;28;20202;-82
2021/11/27 06:56:37;;;;;;;2.23;2.03;;;;;;;18.76;48.95;94583.03;5031888;28;20253;-83
2021/11/27 06:59:03;;;;;;;2.20;2.00;;;;;;;19.35;48.66;94690.38;5005844;28;20232;-80
2021/11/27 07:01:30;;;;;;;2.20;2.00;;;;;;;20.74;48.52;94930.63;5004487;28;20206;-82
2021/11/27 07:03:57;;;;;;;2.40;2.20;;;;;;;20.30;48.77;94845.13;5009040;28;20525;-83
2021/11/27 07:06:29;;;;;;;2.10;2.00;;;;;;;20.23;48.67;94831.59;5014355;28;20840;-84
2021/11/27 07:08:56;;;;;;;1.83;1.73;;;;;;;20.63;48.62;94901.81;5004605;28;20278;-82
2021/11/27 07:11:23;;;;;;;2.30;2.10;;;;;;;19.21;48.81;94664.13;5033199;28;20683;-82
2021/11/27 07:13:49;;;;;;;2.90;2.70;;;;;;;20.63;48.25;94895.88;5000340;28;20220;-82
2021/11/27 07:16:16;;;;;;;3.30;3.00;;;;;;;20.51;46.81;94884.06;5032029;28;20205;-82
2021/11/27 07:18:42;;;;;;;2.60;2.40;;;;;;;15.15;46.34;94026.44;5030084;28;20201;-82
2021/11/27 07:21:09;;;;;;;2.67;2.47;;;;;;;16.33;46.50;94180.56;5014281;28;20224;-82
2021/11/27 07:23:37;;;;;;;2.73;2.53;;;;;;;20.09;47.36;94818.06;5032852;28;20285;-82
2021/11/27 07:26:03;;;;;;;4.40;2.43;;;;;;;19.64;47.66;94744.50;5023598;28;20254;-82
2021/11/27 07:28:30;;;;;;;2.50;2.30;;;;;;;20.14;47.42;94826.56;5031293;28;20284;-82
2021/11/27 07:30:56;;;;;;;2.40;2.20;;;;;;;20.17;47.77;94835.88;5006116;28;20225;-82
2021/11/27 07:33:24;;;;;;;2.53;2.33;;;;;;;20.20;47.63;94838.41;4992251;28;20256;-81
2021/11/27 07:35:51;;;;;;;2.47;2.27;;;;;;;20.69;47.75;94934.09;5004251;28;20639;-82
2021/11/27 07:38:17;;;;;;;3.17;2.53;;;;;;;20.51;47.66;94909.56;4981212;28;20268;-86
2021/11/27 07:40:44;;;;;;;3.57;3.27;;;;;;;20.05;45.67;94823.19;5015780;28;20264;-82
2021/11/27 07:43:10;;;;;;;4.03;3.50;;;;;;;20.16;43.93;94836.75;4986330;28;20280;-82
2021/11/27 07:45:37;;;;;;;4.00;3.63;;;;;;;20.11;42.95;94841.84;4998480;28;20256;-82
2021/11/27 07:48:04;;;;;;;4.77;4.00;;;;;;;20.20;41.73;94853.72;5013018;28;20304;-82
2021/11/27 07:50:30;;;;;;;4.60;4.20;;;;;;;20.52;41.17;94918.06;4982053;28;20327;-84
2021/11/27 07:52:57;;;;;;;5.13;3.80;;;;;;;19.94;40.89;94824.13;4997288;28;20202;-82
2021/11/27 07:55:23;;;;;;;4.77;3.80;;;;;;;20.26;40.56;94885.13;5013400;28;20265;-81
2021/11/27 07:57:50;;;;;;;6.47;3.77;;;;;;;20.34;40.15;94897.81;4988678;28;20344;-82
2021/11/27 08:00:16;;;;;;;4.30;3.90;;;;;;;20.14;40.13;94869.06;5002621;28;20237;-82
2021/11/27 08:02:43;;;;;;;4.23;3.63;;;;;;;20.22;40.25;94878.31;5021933;28;20228;-84
2021/11/27 08:05:10;;;;;;;3.90;3.53;;;;;;;20.24;40.13;94914.00;5007874;28;20248;-82
2021/11/27 08:07:37;;;;;;;4.07;3.67;;;;;;;20.22;40.48;94898.72;5002702;28;20229;-82
2021/11/27 08:10:08;;;;;;;3.80;3.10;;;;;;;20.46;41.33;94936.78;5000442;28;20205;-82
2021/11/27 08:12:35;;;;;;;4.07;3.67;;;;;;;20.08;41.72;94880.13;4998865;28;20233;-82
2021/11/27 08:15:05;;;;;;;3.67;3.37;;;;;;;19.75;42.48;94829.38;5006300;28;20221;-81
2021/11/27 08:17:32;;;;;;;3.40;3.10;;;;;;;19.83;43.04;94841.19;5005285;28;20249;-84
2021/11/27 08:19:58;;;;;;;3.40;3.10;;;;;;;20.24;43.62;94919.13;5008686;28;20212;-83
2021/11/27 08:22:25;;;;;;;3.13;2.87;;;;;;;20.60;43.96;94975.81;5002605;28;20217;-82
2021/11/27 08:24:51;;;;;;;2.90;2.70;;;;;;;20.57;44.33;94967.38;4986868;28;20256;-81
2021/11/27 08:27:19;;;;;;;3.20;2.90;;;;;;;19.98;44.47;94870.00;5001756;28;20262;-84
2021/11/27 08:29:46;;;;;;;3.60;3.27;;;;;;;19.95;44.73;94868.28;5017093;28;20225;-82
2021/11/27 08:32:12;;;;;;;2.73;2.53;;;;;;;20.25;45.24;94924.19;4984300;28;20567;-82
2021/11/27 08:34:39;;;;;;;3.07;2.70;;;;;;;19.41;45.18;94803.25;5017200;28;20674;-85
2021/11/27 08:37:05;;;;;;;3.30;3.00;;;;;;;19.55;45.12;94804.03;5019235;28;20221;-79
2021/11/27 08:39:32;;;;;;;2.60;2.40;;;;;;;20.27;45.26;94925.06;5001157;28;20229;-82
2021/11/27 08:41:58;;;;;;;3.13;2.80;;;;;;;19.83;45.33;94851.38;5018712;28;20202;-79
2021/11/27 08:44:25;;;;;;;2.70;2.50;;;;;;;19.46;45.51;94782.84;4984072;28;20246;-82
2021/11/27 08:46:52;;;;;;;2.67;2.47;;;;;;;19.05;45.54;94714.31;5011246;28;20313;-81
2021/11/27 08:49:18;;;;;;;2.97;2.73;;;;;;;20.62;45.42;94979.22;4986116;28;20338;-81
2021/11/27 08:51:45;;;;;;;2.63;2.37;;;;;;;20.64;45.76;94989.41;4995328;28;20202;-80
2021/11/27 08:54:12;;;;;;;2.80;2.60;;;;;;;20.25;45.88;94906.34;5012344;28;20237;-80
2021/11/27 08:56:39;;;;;;;2.87;2.67;;;;;;;20.18;46.00;94908.97;5003648;28;20336;-81
2021/11/27 08:59:06;;;;;;;2.77;2.57;;;;;;;18.71;45.75;94656.00;4990190;28;20248;-80
2021/11/27 09:01:33;;;;;;;3.33;2.60;;;;;;;20.19;45.75;94911.50;5023011;28;20279;-81
2021/11/27 09:03:59;;;;;;;4.50;2.60;;;;;;;20.13;45.62;94897.97;5024933;28;20209;-80
2021/11/27 09:06:26;;;;;;;2.57;2.37;;;;;;;20.18;45.81;94922.56;5007309;28;20233;-80
2021/11/27 09:08:53;;;;;;;3.60;2.63;;;;;;;20.44;45.91;94958.09;4995209;28;20698;-81
2021/11/27 09:11:21;;;;;;;2.70;2.50;;;;;;;20.20;46.04;94950.59;4990683;28;20205;-81
2021/11/27 09:13:47;;;;;;;3.33;2.30;;;;;;;19.83;45.94;94901.50;5030119;28;20201;-82
2021/11/27 09:16:14;;;;;;;2.93;2.40;;;;;;;19.92;45.92;94925.22;4990416;28;20710;-81
2021/11/27 09:18:58;;;;;;;2.60;2.40;;;;;;;19.80;46.05;94906.59;4986237;28;20205;-81
2021/11/27 09:21:26;;;;;;;2.67;2.40;;;;;;;19.91;46.02;94921.00;5005055;28;20634;-80
2021/11/27 09:23:53;;;;;;;2.20;2.00;;;;;;;19.36;46.92;94832.97;5027398;28;20307;-80
2021/11/27 09:26:19;;;;;;;2.30;2.10;;;;;;;19.73;46.08;94894.75;5028542;28;20252;-81
2021/11/27 09:28:46;;;;;;;2.40;2.20;;;;;;;20.16;46.41;94971.88;5016253;28;20654;-81
2021/11/27 09:31:13;;;;;;;3.07;2.70;;;;;;;19.75;46.21;94899.00;5029518;28;20233;-81
2021/11/27 09:33:39;;;;;;;2.53;2.00;;;;;;;20.31;45.62;94985.38;5008018;23;20664;-83
2021/11/27 09:36:08;;;;;;;3.73;2.20;;;;;;;20.27;46.13;94970.09;4975460;28;20262;-82
2021/11/27 09:38:39;;;;;;;2.40;2.20;;;;;;;20.65;46.33;95035.34;4957560;28;20203;-82
2021/11/27 09:41:29;;;;;;;2.60;2.00;;;;;;;20.42;46.28;95005.69;4987027;28;20241;-82
2021/11/27 09:43:57;;;;;;;2.37;2.10;;;;;;;20.48;46.47;95008.22;4990176;28;20602;-80
2021/11/27 09:46:25;;;;;;;3.97;2.10;;;;;;;20.53;45.84;95015.00;4994509;28;20286;-81
2021/11/27 09:48:54;;;;;;;3.23;2.30;;;;;;;20.66;46.05;95036.19;4983579;28;20238;-81
2021/11/27 09:51:25;;;;;;;2.27;2.07;;;;;;;20.46;46.23;95007.41;4993158;28;20246;-81
2021/11/27 09:53:52;;;;;;;2.23;2.03;;;;;;;20.40;46.22;94989.59;4975074;28;20253;-82
2021/11/27 09:56:19;;;;;;;2.67;1.83;;;;;;;20.61;46.31;95023.47;4952704;28;20723;-82
2021/11/27 09:58:46;;;;;;;2.23;2.10;;;;;;;20.54;46.51;95016.69;4970391;28;20210;-82
2021/11/27 10:01:17;;;;;;;2.10;2.00;;;;;;;20.79;46.59;95041.19;5003347;28;20245;-82
2021/11/27 10:04:02;;;;;;;2.10;1.90;;;;;;;20.48;46.56;94986.13;4985014;28;20219;-82
2021/11/27 10:06:33;;;;;;;2.30;2.10;;;;;;;20.51;46.62;94991.19;4964419;28;20215;-81
2021/11/27 10:09:01;;;;;;;2.40;2.03;;;;;;;20.44;46.57;94978.50;4958221;28;20704;-81
2021/11/27 10:11:28;;;;;;;2.00;1.90;;;;;;;20.71;46.32;95016.56;4991880;28;20309;-82
2021/11/27 10:13:55;;;;;;;2.27;2.07;;;;;;;20.52;46.38;94975.03;4987844;28;20222;-82
2021/11/27 10:16:21;;;;;;;2.10;2.00;;;;;;;20.85;46.15;95030.09;4953687;28;20210;-82
2021/11/27 10:19:10;;;;;;;2.20;2.00;;;;;;;20.54;46.57;94975.88;4992150;28;20206;-84
2021/11/27 10:21:38;;;;;;;2.07;1.97;;;;;;;20.58;46.57;94981.81;4966488;28;20199;-83
2021/11/27 10:24:19;;;;;;;2.20;2.00;;;;;;;20.60;46.39;94980.94;4967439;28;20261;-83
2021/11/27 10:26:46;;;;;;;2.13;1.90;;;;;;;20.58;46.46;94974.16;4966258;28;20229;-84
2021/11/27 10:29:28;;;;;;;2.50;2.30;;;;;;;20.60;46.70;94986.03;4985890;28;20235;-84
2021/11/27 10:32:09;;;;;;;2.00;1.90;;;;;;;20.60;46.69;94991.13;4994977;28;20276;-84
2021/11/27 10:34:36;;;;;;;6.17;2.33;;;;;;;20.68;46.49;95009.78;4992748;28;20273;-82
2021/11/27 10:37:22;;;;;;;2.57;2.37;;;;;;;20.39;45.14;94954.72;4977300;28;20202;-83
2021/11/27 10:40:15;;;;;;;3.73;2.50;;;;;;;20.87;44.28;95038.59;4994090;28;20210;-83
2021/11/27 10:42:47;;;;;;;5.47;2.30;;;;;;;20.52;44.29;94975.03;5007197;28;20233;-83
2021/11/27 10:45:24;;;;;;;2.30;2.10;;;;;;;20.86;45.07;95053.06;4973587;28;20227;-82
2021/11/27 10:47:52;;;;;;;2.20;2.10;;;;;;;20.58;45.50;95009.88;4991322;28;20586;-83
2021/11/27 10:50:21;;;;;;;1.93;1.83;;;;;;;20.65;45.59;95034.47;4975013;28;20242;-83
2021/11/27 10:52:48;;;;;;;2.00;1.90;;;;;;;20.56;45.92;95009.88;4956206;28;20237;-83
2021/11/27 10:55:21;;;;;;;2.40;2.20;;;;;;;20.86;46.36;95068.38;4978763;28;20245;-83
2021/11/27 10:57:48;;;;;;;2.07;1.83;;;;;;;20.87;45.99;95061.56;4991428;28;20646;-83
2021/11/27 11:00:29;;;;;;;2.47;2.10;;;;;;;20.87;46.41;95071.78;4976704;28;20245;-83
2021/11/27 11:02:56;;;;;;;2.83;2.00;;;;;;;20.61;46.21;95037.91;4977345;28;20206;-83
2021/11/27 11:05:34;;;;;;;2.33;2.03;;;;;;;20.58;46.53;95025.19;4980627;28;20706;-83
2021/11/27 11:08:01;;;;;;;2.77;1.90;;;;;;;20.53;46.55;95020.09;4988777;28;20310;-83
2021/11/27 11:10:32;;;;;;;1.87;1.77;;;;;;;20.72;46.18;95047.19;4979348;28;20238;-83
2021/11/27 11:13:04;;;;;;;1.90;1.80;;;;;;;20.77;46.44;95065.03;4981187;28;20238;-83
2021/11/27 11:15:46;;;;;;;2.67;1.70;;;;;;;20.38;46.50;94988.72;4975475;28;20625;-83
2021/11/27 11:18:31;;;;;;;2.17;2.07;;;;;;;20.88;46.51;95069.22;5006764;28;20245;-82
2021/11/27 11:20:59;;;;;;;2.93;2.13;;;;;;;20.62;46.49;95020.03;4963307;28;20234;-83
2021/11/27 11:23:29;;;;;;;2.50;2.30;;;;;;;20.86;46.60;95055.59;4959107;28;20893;-83
2021/11/27 11:26:13;;;;;;;1.87;1.77;;;;;;;20.86;46.66;95058.16;4990099;28;20538;-83
2021/11/27 11:28:52;;;;;;;2.50;2.30;;;;;;;20.87;46.67;95047.06;4996628;28;20199;-83
2021/11/27 11:31:30;;;;;;;1.80;1.70;;;;;;;20.48;46.58;94977.59;4994313;28;20284;-85
2021/11/27 11:33:58;;;;;;;2.23;2.10;;;;;;;20.64;45.08;95002.19;4969707;28;20742;-86
2021/11/27 11:36:41;;;;;;;8.50;2.90;;;;;;;20.82;43.58;95025.00;4981761;28;20198;-86
2021/11/27 11:39:08;;;;;;;3.80;2.67;;;;;;;20.72;42.92;94997.88;4969698;28;20234;-85
2021/11/27 11:41:36;;;;;;;3.23;2.93;;;;;;;20.53;43.36;94970.78;4977521;28;20206;-85